createdAt,value
2023-04-22T00:00:55.208Z,0.8
2023-04-22T00:13:55.248Z,0
2023-04-22T00:26:55.276Z,0
2023-04-22T00:39:55.267Z,0
2023-04-22T00:52:55.297Z,0
2023-04-22T01:05:55.268Z,0
2023-04-22T01:18:55.323Z,0
2023-04-22T01:31:55.350Z,0
2023-04-22T01:44:55.363Z,0
2023-04-22T01:57:55.403Z,0
2023-04-22T02:10:55.386Z,0
2023-04-22T02:23:55.409Z,0
2023-04-22T02:36:55.391Z,0
2023-04-22T02:49:55.454Z,0
2023-04-22T03:02:55.753Z,0
2023-04-22T03:15:55.535Z,0
2023-04-22T03:28:55.528Z,0.2
2023-04-22T03:41:55.554Z,0
2023-04-22T03:54:55.565Z,0
2023-04-22T04:07:55.551Z,0
2023-04-22T04:21:55.609Z,0
2023-04-22T04:35:55.629Z,0.2
2023-04-22T04:49:55.622Z,0.6
2023-04-22T05:03:55.752Z,0.9
2023-04-22T05:17:55.646Z,1.3
2023-04-22T05:31:55.698Z,1.0
2023-04-22T05:45:55.755Z,0.8
2023-04-22T05:59:57.129Z,0
2023-04-22T06:13:55.757Z,0
2023-04-22T06:27:55.762Z,0
2023-04-22T06:41:55.773Z,0
2023-04-22T06:55:55.793Z,0.2
2023-04-22T07:12:55.761Z,0.6
2023-04-22T07:28:55.783Z,0.8
2023-04-22T08:31:55.821Z,1.5
2023-04-22T08:45:55.832Z,1.0
2023-04-22T08:59:55.820Z,0.8
2023-04-22T09:13:55.821Z,0.9
2023-04-22T09:30:55.832Z,0.8
2023-04-22T10:02:55.962Z,0.6
2023-04-22T10:19:55.835Z,0.6
2023-04-22T11:33:55.894Z,1.1
2023-04-22T12:01:55.912Z,0.4
2023-04-22T12:17:55.960Z,0.8
2023-04-22T12:31:55.903Z,1.5
2023-04-22T12:45:56.026Z,0.7
2023-04-22T13:17:55.919Z,0.9
2023-04-22T13:32:55.969Z,0.8
2023-04-22T13:59:55.929Z,1.1
2023-04-22T15:35:55.954Z,0.9
2023-04-22T16:12:55.970Z,0
2023-04-22T18:02:56.105Z,0
2023-04-22T20:41:56.092Z,0.8
2023-04-22T21:13:56.121Z,0.4
2023-04-22T21:27:56.098Z,0.8
2023-04-22T21:40:56.744Z,0.2
2023-04-22T22:20:56.125Z,0
2023-04-22T22:52:56.132Z,0
2023-04-22T23:05:56.143Z,0.8
2023-04-22T23:45:56.195Z,0
2023-04-22T23:58:56.188Z,0.8
